createdAt,value
2022-11-01T00:02:03.959Z,1.50
2022-11-01T00:04:32.571Z,1.40
2022-11-01T00:07:01.142Z,1.60
2022-11-01T00:09:29.827Z,1.50
2022-11-01T00:11:58.544Z,1.40
2022-11-01T00:14:27.063Z,1.30
2022-11-01T00:16:55.594Z,1.50
2022-11-01T00:19:25.527Z,1.50
2022-11-01T00:21:54.076Z,1.30
2022-11-01T00:24:22.614Z,1.57
2022-11-01T00:26:51.237Z,1.40
2022-11-01T00:29:19.791Z,1.70
2022-11-01T00:31:48.346Z,1.63
2022-11-01T00:34:17.238Z,1.30
2022-11-01T00:36:47.132Z,1.47
2022-11-01T00:39:16.464Z,1.50
2022-11-01T00:41:44.999Z,1.40
2022-11-01T00:44:13.520Z,1.30
2022-11-01T00:46:42.085Z,1.17
2022-11-01T00:49:10.592Z,1.27
2022-11-01T00:51:39.148Z,1.60
2022-11-01T00:54:09.193Z,1.20
2022-11-01T00:56:37.749Z,1.30
2022-11-01T00:59:06.400Z,1.10
2022-11-01T01:01:35.056Z,1.23
2022-11-01T01:04:03.771Z,1.30
2022-11-01T01:06:32.309Z,1.30
2022-11-01T01:09:01.268Z,1.30
2022-11-01T01:11:31.200Z,1.40
2022-11-01T01:13:59.739Z,1.40
2022-11-01T01:16:28.318Z,1.23
2022-11-01T01:18:56.882Z,1.40
2022-11-01T01:21:25.427Z,1.33
2022-11-01T01:23:54.690Z,1.40
2022-11-01T01:26:23.294Z,1.33
2022-11-01T01:28:55.836Z,1.30
2022-11-01T01:31:24.378Z,1.40
2022-11-01T01:33:52.918Z,1.33
2022-11-01T01:36:21.597Z,1.30
2022-11-01T01:38:52.815Z,1.40
2022-11-01T01:41:39.120Z,1.43
2022-11-01T01:44:22.544Z,1.30
2022-11-01T01:46:52.410Z,1.33
2022-11-01T01:49:21.092Z,1.40
2022-11-01T01:51:49.875Z,1.30
2022-11-01T01:54:18.435Z,1.47
2022-11-01T01:56:47.039Z,1.57
2022-11-01T01:59:15.603Z,1.80
2022-11-01T02:01:44.235Z,1.27
2022-11-01T02:04:17.894Z,1.40
2022-11-01T02:06:46.467Z,1.40
2022-11-01T02:09:15.627Z,1.30
2022-11-01T02:11:44.143Z,1.20
2022-11-01T02:14:12.755Z,1.37
2022-11-01T02:16:45.917Z,1.30
2022-11-01T02:19:32.077Z,1.30
2022-11-01T02:22:05.144Z,1.30
2022-11-01T02:24:46.107Z,1.50
2022-11-01T02:27:22.407Z,1.10
2022-11-01T02:30:18.299Z,1.23
2022-11-01T02:32:53.645Z,1.40
2022-11-01T02:35:25.011Z,1.20
2022-11-01T02:37:55.163Z,1.30
2022-11-01T02:40:27.184Z,1.20
2022-11-01T02:42:58.520Z,1.20
2022-11-01T02:45:30.888Z,1.00
2022-11-01T02:48:01.605Z,1.23
2022-11-01T02:50:32.082Z,1.37
2022-11-01T02:53:01.445Z,1.47
2022-11-01T02:55:34.253Z,1.30
2022-11-01T02:58:03.890Z,1.20
2022-11-01T03:00:33.519Z,1.20
2022-11-01T03:03:11.413Z,1.30
2022-11-01T03:05:45.906Z,1.37
2022-11-01T03:08:16.908Z,1.27
2022-11-01T03:10:48.275Z,1.20
2022-11-01T03:13:27.187Z,1.13
2022-11-01T03:15:58.544Z,1.20
2022-11-01T03:18:30.627Z,1.20
2022-11-01T03:21:01.526Z,1.20
2022-11-01T03:23:32.790Z,1.10
2022-11-01T03:26:02.267Z,1.33
2022-11-01T03:28:32.866Z,1.13
2022-11-01T03:31:05.400Z,1.27
2022-11-01T03:33:36.674Z,1.10
2022-11-01T03:36:13.442Z,1.10
2022-11-01T03:38:44.789Z,1.10
2022-11-01T03:41:15.971Z,1.30
2022-11-01T03:43:44.648Z,1.40
2022-11-01T03:46:13.226Z,1.40
2022-11-01T03:48:43.178Z,1.20
2022-11-01T03:51:11.749Z,0.90
2022-11-01T03:53:40.281Z,1.10
2022-11-01T03:56:09.706Z,1.00
2022-11-01T03:58:45.136Z,1.23
2022-11-01T04:01:14.316Z,1.17
2022-11-01T04:03:44.690Z,1.20
2022-11-01T04:06:13.262Z,1.40
2022-11-01T04:08:41.990Z,1.20
2022-11-01T04:11:10.527Z,1.10
2022-11-01T04:13:39.234Z,1.20
2022-11-01T04:16:25.355Z,1.20
2022-11-01T04:19:09.170Z,1.10
2022-11-01T04:21:37.806Z,1.20
2022-11-01T04:24:06.475Z,1.10
2022-11-01T04:26:35.456Z,1.03
2022-11-01T04:29:03.974Z,1.00
2022-11-01T04:31:33.392Z,1.10
2022-11-01T04:34:03.894Z,1.03
2022-11-01T04:36:32.458Z,1.10
2022-11-01T04:39:01.005Z,1.20
2022-11-01T04:41:30.348Z,1.10
2022-11-01T04:43:59.552Z,1.10
2022-11-01T04:46:30.970Z,0.90
2022-11-01T04:48:59.520Z,1.10
2022-11-01T04:51:29.436Z,1.00
2022-11-01T04:53:58.018Z,0.90
2022-11-01T04:56:26.567Z,1.00
2022-11-01T04:58:55.160Z,1.10
2022-11-01T05:01:23.763Z,0.97
2022-11-01T05:03:52.403Z,0.93
2022-11-01T05:06:20.949Z,0.97
2022-11-01T05:08:50.828Z,0.80
2022-11-01T05:11:25.190Z,0.90
2022-11-01T05:13:53.735Z,1.00
2022-11-01T05:16:22.277Z,1.13
2022-11-01T05:18:51.107Z,0.90
2022-11-01T05:21:19.661Z,0.90
2022-11-01T05:23:49.186Z,1.00
2022-11-01T05:26:19.177Z,0.80
2022-11-01T05:28:47.968Z,1.10
2022-11-01T05:31:16.493Z,1.00
2022-11-01T05:33:45.099Z,1.07
2022-11-01T05:36:13.608Z,0.87
2022-11-01T05:38:42.150Z,0.70
2022-11-01T05:41:10.694Z,0.70
2022-11-01T05:43:40.721Z,0.70
2022-11-01T05:46:09.616Z,0.73
2022-11-01T05:48:38.204Z,0.70
2022-11-01T05:51:06.848Z,0.80
2022-11-01T05:53:35.474Z,0.60
2022-11-01T05:56:04.036Z,0.70
2022-11-01T05:58:32.556Z,0.70
2022-11-01T06:01:03.109Z,0.67
2022-11-01T06:03:31.906Z,0.70
2022-11-01T06:06:00.506Z,0.70
2022-11-01T06:08:29.330Z,0.50
2022-11-01T06:11:02.667Z,0.70
2022-11-01T06:13:31.240Z,0.60
2022-11-01T06:16:00.321Z,0.50
2022-11-01T06:18:30.234Z,0.80
2022-11-01T06:20:59.203Z,0.63
2022-11-01T06:23:27.997Z,0.60
2022-11-01T06:26:01.622Z,0.50
2022-11-01T06:28:30.251Z,0.70
2022-11-01T06:31:02.111Z,0.70
2022-11-01T06:33:32.799Z,0.57
2022-11-01T06:36:01.987Z,0.60
2022-11-01T06:38:30.524Z,0.97
2022-11-01T06:40:59.053Z,0.77
2022-11-01T06:43:27.573Z,0.60
2022-11-01T06:45:56.113Z,0.60
2022-11-01T06:48:24.645Z,0.83
2022-11-01T06:50:55.661Z,0.80
2022-11-01T06:53:24.752Z,0.80
2022-11-01T06:55:53.487Z,0.80
2022-11-01T06:58:22.166Z,0.60
2022-11-01T07:00:51.353Z,0.70
2022-11-01T07:03:20.127Z,1.00
2022-11-01T07:05:49.553Z,1.07
2022-11-01T07:08:19.473Z,1.00
2022-11-01T07:10:52.451Z,0.90
2022-11-01T07:13:20.997Z,0.90
2022-11-01T07:15:49.512Z,1.03
2022-11-01T07:18:18.162Z,1.07
2022-11-01T07:23:21.523Z,1.03
2022-11-01T07:25:52.815Z,1.00
2022-11-01T07:28:21.590Z,0.97
2022-11-01T07:30:50.485Z,1.07
2022-11-01T07:33:19.235Z,0.90
2022-11-01T07:35:48.218Z,0.90
2022-11-01T07:38:17.387Z,1.07
2022-11-01T07:40:49.717Z,0.60
2022-11-01T07:43:18.804Z,0.97
2022-11-01T07:45:47.515Z,1.13
2022-11-01T07:48:17.168Z,0.90
2022-11-01T07:50:46.037Z,0.70
2022-11-01T07:53:15.437Z,0.80
2022-11-01T07:55:44.430Z,0.93
2022-11-01T07:58:14.850Z,0.70
2022-11-01T08:00:44.192Z,0.80
2022-11-01T08:03:13.843Z,0.80
2022-11-01T08:05:42.515Z,0.87
2022-11-01T08:08:11.067Z,0.80
2022-11-01T08:10:40.256Z,0.93
2022-11-01T08:13:09.690Z,0.70
2022-11-01T08:15:39.569Z,0.90
2022-11-01T08:18:08.150Z,0.80
2022-11-01T08:20:36.760Z,0.80
2022-11-01T08:23:05.696Z,0.73
2022-11-01T08:25:35.958Z,0.83
2022-11-01T08:28:05.392Z,1.07
2022-11-01T08:30:34.069Z,0.87
2022-11-01T08:33:04.496Z,1.07
2022-11-01T08:35:34.309Z,1.00
2022-11-01T08:38:03.776Z,1.00
2022-11-01T08:40:32.852Z,0.80
2022-11-01T08:43:01.682Z,0.83
2022-11-01T08:45:30.644Z,0.90
2022-11-01T08:48:00.803Z,0.90
2022-11-01T08:50:30.897Z,1.07
2022-11-01T08:52:59.773Z,0.80
2022-11-01T08:55:29.434Z,1.17
2022-11-01T08:58:00.621Z,1.20
2022-11-01T09:00:30.855Z,1.00
2022-11-01T09:03:00.498Z,0.87
2022-11-01T09:05:31.668Z,1.23
2022-11-01T09:08:01.413Z,1.17
2022-11-01T09:10:31.258Z,1.20
2022-11-01T09:13:00.366Z,1.10
2022-11-01T09:15:29.691Z,1.00
2022-11-01T09:17:58.304Z,1.10
2022-11-01T09:20:28.181Z,1.20
2022-11-01T09:22:58.154Z,1.20
2022-11-01T09:25:26.783Z,1.17
2022-11-01T09:27:57.655Z,1.10
2022-11-01T09:30:26.539Z,1.20
2022-11-01T09:32:55.184Z,1.10
2022-11-01T09:35:23.782Z,1.30
2022-11-01T09:38:00.069Z,1.40
2022-11-01T09:40:29.556Z,1.20
2022-11-01T09:43:01.678Z,1.37
2022-11-01T09:45:33.072Z,1.37
2022-11-01T09:48:03.198Z,1.60
2022-11-01T09:50:34.312Z,1.23
2022-11-01T09:53:05.022Z,1.27
2022-11-01T09:55:38.147Z,1.30
2022-11-01T09:58:10.669Z,1.40
2022-11-01T10:00:42.250Z,1.40
2022-11-01T10:03:20.000Z,1.70
2022-11-01T10:05:53.164Z,1.37
2022-11-01T10:08:27.167Z,1.40
2022-11-01T10:11:02.614Z,1.70
2022-11-01T10:13:36.952Z,1.20
2022-11-01T10:16:07.356Z,2.00
2022-11-01T10:18:39.223Z,1.60
2022-11-01T10:21:11.805Z,1.10
2022-11-01T10:23:44.741Z,1.17
2022-11-01T10:26:15.576Z,1.70
2022-11-01T10:28:47.099Z,1.60
2022-11-01T10:31:17.212Z,1.73
2022-11-01T10:33:48.369Z,1.70
2022-11-01T10:36:19.623Z,1.70
2022-11-01T10:39:29.883Z,1.30
2022-11-01T10:41:41.018Z,1.70
2022-11-01T10:44:12.720Z,1.40
2022-11-01T10:46:43.187Z,1.67
2022-11-01T10:49:17.204Z,1.63
2022-11-01T10:51:46.147Z,1.50
2022-11-01T10:54:19.823Z,1.63
2022-11-01T10:56:49.673Z,1.60
2022-11-01T10:59:20.487Z,1.23
2022-11-01T11:01:50.443Z,1.40
2022-11-01T11:04:22.054Z,1.10
2022-11-01T11:06:51.361Z,1.40
2022-11-01T11:09:24.371Z,1.37
2022-11-01T11:11:53.215Z,1.30
2022-11-01T11:14:22.570Z,1.10
2022-11-01T11:16:53.516Z,1.37
2022-11-01T11:19:26.318Z,1.30
2022-11-01T11:21:55.674Z,1.43
2022-11-01T11:24:26.311Z,1.20
2022-11-01T11:26:56.741Z,1.60
2022-11-01T11:29:35.780Z,1.50
2022-11-01T11:32:04.795Z,1.70
2022-11-01T11:34:34.959Z,1.33
2022-11-01T11:37:04.857Z,1.60
2022-11-01T11:39:35.667Z,1.30
2022-11-01T11:42:12.299Z,1.27
2022-11-01T11:44:42.445Z,1.43
2022-11-01T11:47:21.243Z,1.30
2022-11-01T11:49:53.527Z,1.47
2022-11-01T11:52:28.517Z,1.37
2022-11-01T11:54:58.768Z,1.20
2022-11-01T11:57:29.910Z,1.20
2022-11-01T12:00:00.635Z,1.47
2022-11-01T12:02:31.633Z,1.60
2022-11-01T12:05:01.517Z,1.50
2022-11-01T12:07:32.262Z,1.40
2022-11-01T12:10:03.192Z,1.20
2022-11-01T12:12:32.967Z,1.07
2022-11-01T12:15:03.348Z,1.27
2022-11-01T12:17:33.760Z,1.37
2022-11-01T12:20:03.427Z,1.23
2022-11-01T12:22:34.874Z,1.20
2022-11-01T12:25:07.283Z,1.33
2022-11-01T12:27:37.746Z,1.30
2022-11-01T12:30:08.484Z,1.00
2022-11-01T12:32:39.953Z,1.00
2022-11-01T12:35:12.874Z,1.43
2022-11-01T12:37:48.048Z,1.40
2022-11-01T12:40:19.911Z,1.47
2022-11-01T12:42:51.580Z,1.30
2022-11-01T12:45:24.332Z,1.27
2022-11-01T12:47:56.367Z,1.40
2022-11-01T12:50:26.176Z,1.53
2022-11-01T12:52:57.563Z,1.20
2022-11-01T12:55:32.105Z,1.00
2022-11-01T12:58:00.722Z,1.10
2022-11-01T13:00:33.843Z,1.30
2022-11-01T13:03:09.242Z,1.20
2022-11-01T13:05:46.739Z,1.13
2022-11-01T13:08:18.352Z,1.43
2022-11-01T13:10:49.320Z,1.20
2022-11-01T13:13:22.465Z,1.20
2022-11-01T13:15:59.749Z,1.30
2022-11-01T13:18:34.411Z,1.20
2022-11-01T13:21:09.820Z,1.27
2022-11-01T13:23:39.388Z,1.10
2022-11-01T13:26:13.349Z,1.20
2022-11-01T13:28:49.577Z,1.10
2022-11-01T13:31:23.950Z,0.80
2022-11-01T13:33:55.362Z,1.17
2022-11-01T13:36:30.213Z,1.10
2022-11-01T13:39:06.656Z,1.00
2022-11-01T13:41:40.826Z,1.10
2022-11-01T13:44:14.604Z,1.30
2022-11-01T13:46:52.196Z,1.10
2022-11-01T13:49:32.137Z,1.10
2022-11-01T13:52:03.225Z,1.30
2022-11-01T13:54:34.921Z,1.00
2022-11-01T13:57:12.241Z,1.30
2022-11-01T13:59:45.697Z,1.57
2022-11-01T14:02:33.222Z,1.23
2022-11-01T14:05:02.368Z,1.30
2022-11-01T14:07:33.273Z,1.43
2022-11-01T14:10:01.817Z,1.07
2022-11-01T14:12:43.336Z,1.40
2022-11-01T14:15:19.750Z,1.23
2022-11-01T14:18:04.250Z,1.10
2022-11-01T14:20:49.923Z,1.20
2022-11-01T14:23:37.184Z,1.50
2022-11-01T14:26:24.674Z,1.13
2022-11-01T14:28:56.875Z,1.10
2022-11-01T14:31:26.995Z,1.20
2022-11-01T14:33:59.889Z,1.10
2022-11-01T14:36:30.266Z,1.40
2022-11-01T14:39:03.104Z,1.10
2022-11-01T14:41:34.381Z,1.00
2022-11-01T14:44:11.672Z,1.03
2022-11-01T14:46:46.591Z,1.30
2022-11-01T14:49:19.947Z,1.40
2022-11-01T14:51:50.524Z,1.07
2022-11-01T14:54:22.496Z,1.10
2022-11-01T14:56:52.085Z,1.10
2022-11-01T14:59:23.419Z,1.10
2022-11-01T15:01:55.887Z,1.07
2022-11-01T15:04:29.168Z,1.13
2022-11-01T15:06:58.299Z,1.17
2022-11-01T15:09:28.066Z,1.10
2022-11-01T15:11:57.451Z,1.30
2022-11-01T15:14:29.512Z,1.37
2022-11-01T15:16:58.309Z,1.40
2022-11-01T15:19:29.240Z,1.20
2022-11-01T15:22:03.113Z,1.20
2022-11-01T15:24:33.817Z,1.10
2022-11-01T15:27:06.175Z,1.40
2022-11-01T15:29:37.601Z,1.10
2022-11-01T15:32:06.262Z,1.10
2022-11-01T15:34:36.361Z,1.27
2022-11-01T15:37:12.413Z,1.20
2022-11-01T15:39:40.958Z,1.10
2022-11-01T15:42:15.654Z,1.10
2022-11-01T15:44:46.408Z,1.40
2022-11-01T15:47:18.205Z,1.10
2022-11-01T15:49:49.340Z,1.07
2022-11-01T15:52:19.244Z,1.37
2022-11-01T15:54:51.133Z,1.17
2022-11-01T15:57:22.568Z,1.50
2022-11-01T15:59:54.025Z,1.10
2022-11-01T16:02:25.618Z,1.40
2022-11-01T16:04:54.354Z,1.27
2022-11-01T16:07:23.591Z,1.40
2022-11-01T16:09:53.709Z,1.20
2022-11-01T16:12:23.654Z,1.23
2022-11-01T16:14:55.866Z,1.40
2022-11-01T16:17:26.027Z,1.33
2022-11-01T16:19:55.074Z,1.17
2022-11-01T16:22:31.228Z,1.27
2022-11-01T16:25:03.471Z,1.13
2022-11-01T16:27:32.065Z,1.27
2022-11-01T16:30:08.342Z,1.10
2022-11-01T16:32:36.922Z,1.30
2022-11-01T16:35:20.375Z,1.23
2022-11-01T16:37:48.915Z,1.20
2022-11-01T16:40:24.179Z,1.33
2022-11-01T16:42:52.866Z,1.40
2022-11-01T16:45:22.771Z,1.63
2022-11-01T16:47:57.113Z,1.60
2022-11-01T16:50:26.819Z,1.40
2022-11-01T16:52:55.427Z,1.50
2022-11-01T16:55:27.183Z,1.27
2022-11-01T16:57:57.507Z,1.30
2022-11-01T17:00:27.399Z,1.20
2022-11-01T17:02:57.953Z,1.50
2022-11-01T17:05:26.558Z,1.40
2022-11-01T17:07:55.626Z,1.80
2022-11-01T17:10:25.533Z,1.47
2022-11-01T17:12:57.619Z,1.63
2022-11-01T17:15:27.798Z,1.80
2022-11-01T17:17:56.351Z,1.13
2022-11-01T17:20:26.591Z,1.57
2022-11-01T17:22:56.495Z,1.30
2022-11-01T17:25:27.229Z,1.33
2022-11-01T17:27:56.376Z,1.50
2022-11-01T17:30:24.984Z,1.50
2022-11-01T17:32:54.898Z,1.20
2022-11-01T17:35:26.661Z,1.00
2022-11-01T17:37:56.143Z,1.30
2022-11-01T17:40:26.047Z,1.40
2022-11-01T17:42:55.056Z,1.20
2022-11-01T17:45:23.692Z,1.40
2022-11-01T17:47:54.988Z,1.50
2022-11-01T17:50:23.567Z,1.47
2022-11-01T17:52:52.129Z,1.40
2022-11-01T17:55:20.664Z,1.23
2022-11-01T17:57:49.739Z,1.40
2022-11-01T18:00:18.386Z,1.50
2022-11-01T18:02:48.849Z,1.27
2022-11-01T18:05:19.085Z,1.33
2022-11-01T18:07:49.795Z,1.37
2022-11-01T18:10:19.341Z,1.40
2022-11-01T18:12:55.269Z,1.20
2022-11-01T18:15:27.621Z,1.37
2022-11-01T18:18:02.917Z,1.30
2022-11-01T18:20:42.440Z,1.50
2022-11-01T18:23:12.992Z,1.50
2022-11-01T18:25:42.555Z,1.20
2022-11-01T18:28:13.401Z,1.20
2022-11-01T18:30:42.943Z,1.40
2022-11-01T18:33:15.604Z,1.40
2022-11-01T18:35:48.560Z,1.47
2022-11-01T18:38:25.940Z,1.30
2022-11-01T18:41:00.046Z,1.53
2022-11-01T18:43:30.046Z,1.23
2022-11-01T18:46:27.574Z,1.63
2022-11-01T18:48:47.816Z,1.10
2022-11-01T18:51:22.007Z,1.60
2022-11-01T18:53:51.687Z,1.93
2022-11-01T18:56:21.807Z,1.70
2022-11-01T18:58:50.890Z,1.30
2022-11-01T19:01:20.187Z,1.60
2022-11-01T19:03:49.432Z,1.40
2022-11-01T19:06:22.045Z,1.40
2022-11-01T19:08:53.197Z,1.43
2022-11-01T19:11:21.851Z,1.60
2022-11-01T19:13:51.328Z,1.30
2022-11-01T19:16:20.292Z,1.43
2022-11-01T19:18:49.682Z,1.50
2022-11-01T19:21:19.818Z,1.37
2022-11-01T19:23:50.882Z,1.63
2022-11-01T19:26:22.830Z,1.40
2022-11-01T19:28:52.723Z,1.40
2022-11-01T19:31:28.867Z,1.30
2022-11-01T19:33:59.013Z,1.30
2022-11-01T19:36:34.292Z,1.10
2022-11-01T19:39:13.260Z,1.40
2022-11-01T19:41:44.708Z,1.53
2022-11-01T19:44:13.680Z,1.63
2022-11-01T19:46:42.208Z,1.30
2022-11-01T19:49:19.108Z,1.57
2022-11-01T19:51:47.656Z,1.60
2022-11-01T19:54:17.559Z,1.30
2022-11-01T19:56:46.113Z,1.53
2022-11-01T19:59:16.557Z,1.40
2022-11-01T20:01:46.270Z,1.63
2022-11-01T20:04:27.147Z,1.67
2022-11-01T20:06:59.533Z,1.30
2022-11-01T20:09:31.598Z,1.20
2022-11-01T20:12:00.143Z,1.70
2022-11-01T20:14:29.491Z,1.60
2022-11-01T20:16:58.062Z,1.40
2022-11-01T20:19:26.617Z,1.40
2022-11-01T20:21:55.144Z,1.50
2022-11-01T20:24:23.692Z,1.60
2022-11-01T20:26:53.586Z,1.70
2022-11-01T20:29:22.703Z,1.43
2022-11-01T20:31:51.353Z,1.43
2022-11-01T20:34:20.553Z,1.50
2022-11-01T20:37:08.131Z,1.20
2022-11-01T20:39:38.032Z,1.60
2022-11-01T20:42:07.979Z,1.50
2022-11-01T20:44:36.521Z,1.30
2022-11-01T20:47:05.089Z,1.90
2022-11-01T20:49:33.657Z,1.70
2022-11-01T20:52:26.181Z,1.30
2022-11-01T20:54:52.298Z,1.33
2022-11-01T20:57:28.169Z,1.40
2022-11-01T20:59:57.339Z,1.30
2022-11-01T21:02:26.984Z,1.43
2022-11-01T21:04:58.805Z,1.50
2022-11-01T21:07:29.851Z,1.47
2022-11-01T21:09:58.439Z,1.60
2022-11-01T21:12:34.026Z,1.83
2022-11-01T21:15:04.029Z,1.40
2022-11-01T21:17:32.554Z,1.73
2022-11-01T21:20:01.071Z,1.37
2022-11-01T21:22:30.711Z,1.23
2022-11-01T21:24:59.687Z,1.33
2022-11-01T21:27:31.072Z,1.50
2022-11-01T21:30:04.648Z,1.67
2022-11-01T21:32:36.357Z,2.03
2022-11-01T21:35:23.597Z,1.60
2022-11-01T21:37:53.894Z,1.27
2022-11-01T21:40:25.260Z,1.60
2022-11-01T21:42:55.260Z,1.40
2022-11-01T21:45:30.114Z,1.47
2022-11-01T21:48:01.690Z,1.33
2022-11-01T21:50:30.520Z,1.47
2022-11-01T21:52:59.075Z,1.27
2022-11-01T21:55:27.611Z,1.30
2022-11-01T21:57:57.582Z,1.43
2022-11-01T22:00:26.096Z,1.40
2022-11-01T22:02:54.631Z,1.97
2022-11-01T22:05:23.190Z,1.53
2022-11-01T22:07:51.729Z,1.67
2022-11-01T22:10:20.273Z,1.60
2022-11-01T22:12:48.839Z,1.43
2022-11-01T22:15:18.785Z,1.50
2022-11-01T22:17:47.371Z,1.60
2022-11-01T22:20:16.011Z,1.70
2022-11-01T22:22:44.540Z,1.70
2022-11-01T22:25:13.182Z,1.30
2022-11-01T22:27:41.938Z,1.57
2022-11-01T22:30:11.320Z,1.20
2022-11-01T22:32:41.213Z,1.47
2022-11-01T22:35:10.198Z,1.80
2022-11-01T22:37:38.764Z,1.47
2022-11-01T22:40:12.366Z,1.30
2022-11-01T22:42:41.636Z,1.27
2022-11-01T22:45:14.679Z,1.43
2022-11-01T22:47:44.669Z,1.67
2022-11-01T22:50:14.340Z,1.40
2022-11-01T22:52:44.348Z,1.50
2022-11-01T22:55:20.660Z,1.47
2022-11-01T22:57:50.933Z,1.40
2022-11-01T23:00:28.376Z,1.53
2022-11-01T23:03:01.034Z,1.70
2022-11-01T23:05:30.072Z,1.30
2022-11-01T23:07:59.436Z,1.40
2022-11-01T23:10:29.362Z,1.10
2022-11-01T23:13:17.683Z,1.60
2022-11-01T23:15:46.552Z,1.60
2022-11-01T23:18:20.934Z,1.67
2022-11-01T23:20:52.273Z,1.10
2022-11-01T23:23:21.577Z,1.80
2022-11-01T23:25:50.576Z,1.43
2022-11-01T23:28:19.234Z,1.70
2022-11-01T23:30:48.983Z,1.50
2022-11-01T23:33:19.760Z,1.50
2022-11-01T23:35:51.978Z,1.30
2022-11-01T23:38:21.884Z,1.43
2022-11-01T23:40:51.203Z,1.80
2022-11-01T23:43:23.111Z,1.77
2022-11-01T23:45:52.706Z,1.43
2022-11-01T23:48:24.156Z,1.37
2022-11-01T23:50:53.715Z,1.37
2022-11-01T23:53:24.225Z,1.37
2022-11-01T23:55:54.507Z,1.50
2022-11-01T23:58:26.369Z,1.40
